Time;durP1;ratioP1;P1;durP2;ratioP2;P2;SDS_P1;SDS_P2;PMS_P1;PMS_P2;Temp;Humidity;BMP_temperature;BMP_pressure;BME280_temperature;BME280_humidity;BME280_pressure;Samples;Min_cycle;Max_cycle;Signal;HPM_P1;HPM_P2
2022/04/10 00:01:32;;;;;;;;;;;3.00;99.90;;;;;;2140280;67;20870;-75
2022/04/10 00:04:14;;;;;;;14.27;2.50;;;2.90;99.90;;;;;;2132847;67;20079;-75
2022/04/10 00:06:58;;;;;;;7.35;2.58;;;2.90;99.90;;;;;;2125086;67;20351;-74
2022/04/10 00:09:42;;;;;;;;;;;2.90;99.90;;;;;;2125902;67;20235;-75
2022/04/10 00:12:24;;;;;;;7.93;2.47;;;2.90;99.90;;;;;;2132621;67;20495;-74
2022/04/10 00:15:11;;;;;;;11.80;2.67;;;2.80;99.90;;;;;;2118399;67;20181;-75
2022/04/10 00:17:56;;;;;;;9.63;2.47;;;2.70;99.90;;;;;;2111225;67;20832;-75
2022/04/10 00:20:40;;;;;;;9.75;2.40;;;2.90;99.90;;;;;;2118003;67;20338;-75
2022/04/10 00:23:22;;;;;;;8.20;2.60;;;3.20;99.90;;;;;;2120817;67;20168;-75
2022/04/10 00:26:04;;;;;;;9.05;2.40;;;2.80;99.90;;;;;;2118410;67;20413;-74
2022/04/10 00:28:47;;;;;;;5.95;2.42;;;2.90;99.90;;;;;;2109841;67;20347;-73
2022/04/10 00:31:29;;;;;;;13.05;2.78;;;2.80;99.90;;;;;;2097741;68;20473;-74
2022/04/10 00:34:13;;;;;;;10.05;2.65;;;2.80;99.90;;;;;;2097349;68;20397;-74
2022/04/10 00:37:00;;;;;;;11.32;2.90;;;2.90;99.90;;;;;;2086340;68;20187;-76
2022/04/10 00:39:43;;;;;;;12.52;2.78;;;2.80;99.90;;;;;;2093091;68;20756;-75
2022/04/10 00:42:38;;;;;;;10.40;2.97;;;2.90;99.90;;;;;;2104316;68;20331;-75
2022/04/10 00:45:20;;;;;;;8.20;2.70;;;2.90;99.90;;;;;;2104503;67;20755;-76
2022/04/10 00:48:04;;;;;;;10.43;2.53;;;2.90;99.90;;;;;;2097397;68;20355;-74
2022/04/10 00:53:52;;;;;;;7.55;2.17;;;2.90;99.90;;;;;;2095771;68;20304;-74
2022/04/10 00:56:39;;;;;;;9.95;2.60;;;2.90;99.90;;;;;;2105178;67;20262;-74
2022/04/10 00:59:25;;;;;;;10.18;2.65;;;2.90;99.90;;;;;;2118191;67;20464;-75
2022/04/10 01:02:08;;;;;;;11.02;2.60;;;2.90;99.90;;;;;;2099830;68;20286;-75
2022/04/10 01:04:52;;;;;;;11.32;2.75;;;2.90;99.90;;;;;;2099053;68;20347;-75
2022/04/10 01:07:34;;;;;;;4.60;1.77;;;2.90;99.90;;;;;;2110962;67;20264;-74
2022/04/10 01:10:17;;;;;;;7.13;2.00;;;2.90;99.90;;;;;;2108209;67;20208;-75
2022/04/10 01:13:00;;;;;;;7.28;2.00;;;2.90;99.90;;;;;;2110408;67;20677;-74
2022/04/10 01:15:44;;;;;;;;;;;2.90;99.90;;;;;;2103337;68;20200;-74
2022/04/10 01:18:27;;;;;;;8.43;1.70;;;2.90;99.90;;;;;;2089178;68;20668;-74
2022/04/10 01:21:15;;;;;;;10.20;2.38;;;2.90;99.90;;;;;;2098772;68;20210;-75
2022/04/10 01:23:57;;;;;;;6.25;1.85;;;2.90;99.90;;;;;;2098387;68;20201;-74
2022/04/10 01:26:39;;;;;;;6.20;2.13;;;2.90;99.90;;;;;;2104280;68;20197;-74
2022/04/10 01:29:22;;;;;;;7.82;2.78;;;2.80;99.90;;;;;;2108651;67;20230;-75
2022/04/10 01:32:09;;;;;;;6.93;2.30;;;2.80;99.90;;;;;;2111409;67;20393;-75
2022/04/10 01:34:53;;;;;;;7.22;2.22;;;2.80;99.90;;;;;;2124705;67;20306;-74
2022/04/10 01:37:42;;;;;;;9.13;2.30;;;2.70;99.90;;;;;;2111638;67;20709;-75
2022/04/10 01:40:23;;;;;;;9.07;2.33;;;2.70;99.90;;;;;;2125845;67;20420;-75
2022/04/10 01:43:06;;;;;;;14.65;3.20;;;2.70;99.90;;;;;;2125830;67;20324;-74
2022/04/10 01:45:48;;;;;;;7.05;2.00;;;2.70;99.90;;;;;;2131551;67;20464;-75
2022/04/10 01:48:32;;;;;;;11.60;3.05;;;2.60;99.90;;;;;;2119195;67;20184;-75
2022/04/10 01:51:16;;;;;;;;;;;2.60;99.90;;;;;;2131239;67;20230;-75
2022/04/10 01:53:59;;;;;;;13.00;3.72;;;2.60;99.90;;;;;;2118145;67;20098;-75
2022/04/10 01:56:44;;;;;;;13.37;3.60;;;2.70;99.90;;;;;;2104123;68;20718;-75
2022/04/10 01:59:31;;;;;;;8.77;2.95;;;2.60;99.90;;;;;;2110000;67;20554;-74
2022/04/10 02:02:13;;;;;;;13.13;2.88;;;2.70;99.90;;;;;;2110077;67;20233;-75
2022/04/10 02:04:55;;;;;;;12.23;3.20;;;2.60;99.90;;;;;;2111221;67;20334;-75
2022/04/10 02:07:41;;;;;;;7.40;2.30;;;2.60;99.90;;;;;;2104703;67;20407;-75
2022/04/10 02:10:23;;;;;;;6.18;2.67;;;2.60;99.90;;;;;;2110053;67;20177;-74
2022/04/10 02:13:07;;;;;;;9.32;2.85;;;2.60;99.90;;;;;;2110484;67;20185;-74
2022/04/10 02:15:50;;;;;;;12.02;3.00;;;2.60;99.90;;;;;;2110244;67;20442;-75
2022/04/10 02:18:32;;;;;;;9.00;2.58;;;2.50;99.90;;;;;;2089641;68;20176;-75
2022/04/10 02:21:14;;;;;;;14.38;3.17;;;2.50;99.90;;;;;;2104076;67;20252;-75
2022/04/10 02:23:57;;;;;;;15.65;3.05;;;2.50;99.90;;;;;;2110774;67;20457;-74
2022/04/10 02:26:39;;;;;;;13.25;3.20;;;2.50;99.90;;;;;;2118032;67;20749;-75
2022/04/10 02:29:22;;;;;;;11.18;3.08;;;2.50;99.90;;;;;;2111226;67;20233;-75
2022/04/10 02:32:07;;;;;;;13.25;2.53;;;2.40;99.90;;;;;;2139599;67;20222;-75
2022/04/10 02:34:50;;;;;;;6.72;2.72;;;2.40;99.90;;;;;;2131536;67;20479;-75
2022/04/10 02:37:36;;;;;;;12.27;3.10;;;2.40;99.90;;;;;;2132403;67;20213;-75
2022/04/10 02:40:21;;;;;;;11.80;2.63;;;2.40;99.90;;;;;;2134236;66;20179;-75
2022/04/10 02:43:05;;;;;;;8.10;2.75;;;2.50;99.90;;;;;;2136173;67;20179;-75
2022/04/10 02:45:47;;;;;;;8.52;2.13;;;2.40;99.90;;;;;;2114706;67;20185;-74
2022/04/10 02:48:29;;;;;;;9.93;2.70;;;2.40;99.90;;;;;;2117967;67;20298;-74
2022/04/10 02:51:12;;;;;;;10.52;2.65;;;2.40;99.90;;;;;;2100650;67;20190;-74
2022/04/10 02:53:54;;;;;;;8.77;2.70;;;2.40;99.90;;;;;;2111945;67;20238;-74
2022/04/10 02:56:37;;;;;;;14.77;2.75;;;2.40;99.90;;;;;;2120217;67;20255;-74
2022/04/10 02:59:27;;;;;;;14.63;3.03;;;2.40;99.90;;;;;;2118802;67;20812;-74
2022/04/10 03:02:13;;;;;;;5.63;2.20;;;2.50;99.90;;;;;;2119054;67;20273;-74
2022/04/10 03:04:54;;;;;;;9.23;2.50;;;2.40;99.90;;;;;;2103657;68;20361;-75
2022/04/10 03:07:36;;;;;;;14.45;2.28;;;2.50;99.90;;;;;;2097202;68;20336;-75
2022/04/10 03:10:21;;;;;;;7.38;3.03;;;2.50;99.90;;;;;;2098155;68;20270;-74
2022/04/10 03:13:02;;;;;;;9.57;2.65;;;2.60;99.90;;;;;;2097585;67;20368;-74
2022/04/10 03:15:47;;;;;;;10.75;2.58;;;2.60;99.90;;;;;;2102238;68;20190;-75
2022/04/10 03:18:29;;;;;;;6.20;1.98;;;2.70;99.90;;;;;;2108727;67;20438;-75
2022/04/10 03:21:11;;;;;;;9.35;2.00;;;2.60;99.90;;;;;;2107470;67;20344;-75
2022/04/10 03:23:56;;;;;;;8.35;1.90;;;2.60;99.90;;;;;;2118316;67;20172;-74
2022/04/10 03:26:38;;;;;;;6.70;1.73;;;2.60;99.90;;;;;;2110925;67;20698;-75
2022/04/10 03:29:20;;;;;;;4.60;1.45;;;2.60;99.90;;;;;;2113416;67;20807;-75
2022/04/10 03:32:02;;;;;;;5.95;2.22;;;2.60;99.90;;;;;;2112245;67;20228;-75
2022/04/10 03:34:44;;;;;;;7.25;1.83;;;2.70;99.90;;;;;;2112062;67;20236;-75
2022/04/10 03:37:27;;;;;;;7.43;1.85;;;2.70;99.90;;;;;;2112275;67;20332;-74
2022/04/10 03:40:11;;;;;;;7.55;1.60;;;2.90;99.90;;;;;;2112726;67;20327;-74
2022/04/10 03:42:53;;;;;;;6.78;1.90;;;3.00;99.90;;;;;;2102815;68;20195;-74
2022/04/10 03:45:39;;;;;;;4.63;1.33;;;2.90;99.90;;;;;;2112590;67;20345;-74
2022/04/10 03:48:41;;;;;;;3.45;1.30;;;2.90;99.90;;;;;;2100810;67;20175;-73
2022/04/10 03:51:23;;;;;;;3.17;1.27;;;2.90;99.90;;;;;;2128402;67;20282;-75
2022/04/10 03:54:06;;;;;;;7.13;1.73;;;2.90;99.90;;;;;;2127064;67;20273;-74
2022/04/10 03:56:51;;;;;;;6.57;1.50;;;2.90;99.90;;;;;;2112946;67;20224;-74
2022/04/10 03:59:40;;;;;;;2.67;1.30;;;2.80;99.90;;;;;;2118740;67;20648;-75
2022/04/10 04:02:25;;;;;;;3.75;1.20;;;2.80;99.90;;;;;;2124909;67;20258;-74
2022/04/10 04:05:09;;;;;;;6.45;1.70;;;3.00;99.90;;;;;;2124280;67;20725;-74
2022/04/10 04:07:53;;;;;;;5.00;1.35;;;2.70;99.90;;;;;;2116478;67;20311;-75
2022/04/10 04:10:43;;;;;;;3.03;0.90;;;2.80;99.90;;;;;;2105565;67;20178;-77
2022/04/10 04:13:28;;;;;;;4.93;1.63;;;2.90;99.90;;;;;;2108133;67;20201;-77
2022/04/10 04:16:12;;;;;;;4.43;1.35;;;2.90;99.90;;;;;;2105755;67;20347;-76
2022/04/10 04:18:57;;;;;;;5.72;1.50;;;2.80;99.90;;;;;;2102692;67;20290;-76
2022/04/10 04:21:40;;;;;;;5.53;1.20;;;2.80;99.90;;;;;;2104114;67;20454;-76
2022/04/10 04:24:22;;;;;;;3.22;1.13;;;2.80;99.90;;;;;;2110675;67;20732;-75
2022/04/10 04:27:03;;;;;;;7.55;1.40;;;2.70;99.90;;;;;;2119121;67;20576;-76
2022/04/10 04:29:45;;;;;;;5.80;1.35;;;2.70;99.90;;;;;;2132838;67;20336;-75
2022/04/10 04:32:27;;;;;;;2.55;1.00;;;2.70;99.90;;;;;;2123510;67;20706;-77
2022/04/10 04:35:12;;;;;;;6.85;1.40;;;2.60;99.90;;;;;;2111944;67;20269;-76
2022/04/10 04:37:55;;;;;;;4.18;1.40;;;2.60;99.90;;;;;;2112164;67;20391;-75
2022/04/10 04:40:38;;;;;;;8.35;1.33;;;2.60;99.90;;;;;;2112553;67;20219;-77
2022/04/10 04:43:21;;;;;;;6.30;2.13;;;2.50;99.90;;;;;;2111463;67;20388;-74
2022/04/10 04:46:03;;;;;;;5.63;1.65;;;2.50;99.90;;;;;;2108440;67;20181;-74
2022/04/10 04:48:47;;;;;;;4.50;1.70;;;2.40;99.90;;;;;;2096973;67;20358;-77
2022/04/10 04:51:40;;;;;;;2.75;0.95;;;2.40;99.90;;;;;;2117391;67;20247;-84
2022/04/10 04:54:25;;;;;;;7.88;1.65;;;2.40;99.90;;;;;;2118112;67;20176;-81
2022/04/10 04:57:08;;;;;;;6.25;1.52;;;2.30;99.90;;;;;;2131764;67;20438;-79
2022/04/10 04:59:52;;;;;;;7.50;1.90;;;2.30;99.90;;;;;;2128648;67;20407;-75
2022/04/10 05:02:33;;;;;;;5.93;1.95;;;2.30;99.90;;;;;;2108559;67;20527;-75
2022/04/10 05:05:16;;;;;;;6.57;1.77;;;2.20;99.90;;;;;;2102395;67;20202;-74
2022/04/10 05:08:03;;;;;;;5.88;1.70;;;2.20;99.90;;;;;;2096835;68;20327;-76
2022/04/10 05:10:47;;;;;;;10.07;2.05;;;2.20;99.90;;;;;;2112400;67;20794;-75
2022/04/10 05:13:33;;;;;;;9.13;1.50;;;2.10;99.90;;;;;;2124858;67;20592;-75
2022/04/10 05:16:15;;;;;;;4.20;1.50;;;2.10;99.90;;;;;;2135505;67;21171;-76
2022/04/10 05:18:58;;;;;;;6.70;2.08;;;2.10;99.90;;;;;;2139077;66;20210;-75
2022/04/10 05:21:48;;;;;;;3.65;1.38;;;2.10;99.90;;;;;;2129507;67;20766;-75
2022/04/10 05:24:34;;;;;;;7.57;1.83;;;2.10;99.90;;;;;;2136345;66;20899;-76
2022/04/10 05:27:40;;;;;;;7.00;1.95;;;2.20;99.90;;;;;;2129194;66;20216;-75
2022/04/10 05:30:26;;;;;;;6.55;2.13;;;2.20;99.90;;;;;;2129506;67;20352;-75
2022/04/10 05:33:11;;;;;;;10.20;1.75;;;2.20;99.90;;;;;;2135693;66;20377;-76
2022/04/10 05:35:57;;;;;;;3.30;1.58;;;2.30;99.90;;;;;;2130797;67;20390;-75
2022/04/10 05:38:45;;;;;;;9.70;1.92;;;2.40;99.90;;;;;;2130519;67;20297;-76
2022/04/10 05:41:29;;;;;;;5.32;1.63;;;2.40;99.90;;;;;;2131494;67;20254;-74
2022/04/10 05:44:13;;;;;;;4.80;1.65;;;2.40;99.90;;;;;;2127985;67;20699;-76
2022/04/10 05:46:59;;;;;;;6.63;2.03;;;2.50;99.90;;;;;;2133485;67;20203;-75
2022/04/10 05:49:41;;;;;;;3.97;2.05;;;2.60;99.90;;;;;;2122229;67;20683;-76
2022/04/10 05:52:24;;;;;;;9.40;2.60;;;2.70;99.90;;;;;;2110147;67;20417;-75
2022/04/10 05:55:11;;;;;;;4.70;1.33;;;2.80;99.90;;;;;;2122339;67;20335;-75
2022/04/10 05:57:57;;;;;;;8.15;2.03;;;2.90;99.90;;;;;;2112226;67;20270;-75
2022/04/10 06:00:43;;;;;;;9.90;2.20;;;3.00;99.90;;;;;;2118954;67;20229;-75
2022/04/10 06:03:28;;;;;;;3.42;1.70;;;3.10;99.90;;;;;;2131978;67;20277;-74
2022/04/10 06:06:13;;;;;;;9.18;2.20;;;3.10;99.90;;;;;;2123106;67;20290;-75
2022/04/10 06:08:59;;;;;;;4.78;2.00;;;3.20;99.90;;;;;;2120566;67;20266;-74
2022/04/10 06:11:41;;;;;;;5.25;1.48;;;3.30;99.90;;;;;;2125771;67;20395;-75
2022/04/10 06:14:24;;;;;;;8.00;1.88;;;3.40;99.90;;;;;;2119589;67;20168;-76
2022/04/10 06:17:08;;;;;;;7.30;1.88;;;3.40;99.90;;;;;;2133279;67;20289;-75
2022/04/10 06:19:55;;;;;;;5.35;2.03;;;3.50;99.90;;;;;;2124633;67;20830;-76
2022/04/10 06:22:42;;;;;;;4.38;1.65;;;3.50;99.90;;;;;;2131987;67;20259;-76
2022/04/10 06:25:28;;;;;;;7.18;1.63;;;3.50;99.90;;;;;;2116776;67;20189;-74
2022/04/10 06:28:13;;;;;;;5.78;1.67;;;3.50;99.90;;;;;;2107386;67;20281;-75
2022/04/10 06:30:55;;;;;;;6.95;1.88;;;3.50;99.90;;;;;;2104492;67;20217;-75
2022/04/10 06:33:42;;;;;;;8.25;2.03;;;3.50;99.90;;;;;;2105753;67;20264;-75
2022/04/10 06:36:27;;;;;;;8.65;2.30;;;3.40;99.90;;;;;;2102553;67;20378;-76
2022/04/10 06:39:11;;;;;;;5.97;1.90;;;3.30;99.90;;;;;;2110129;67;20199;-75
2022/04/10 06:41:56;;;;;;;;;;;3.30;99.90;;;;;;2111014;67;20293;-75
2022/04/10 06:44:41;;;;;;;7.00;2.08;;;3.30;99.90;;;;;;2090779;68;20056;-76
2022/04/10 06:47:25;;;;;;;9.35;2.72;;;3.10;99.90;;;;;;2096458;68;20739;-77
2022/04/10 06:50:12;;;;;;;4.80;1.75;;;3.30;99.90;;;;;;2091406;68;20643;-77
2022/04/10 06:52:56;;;;;;;8.00;2.08;;;3.40;99.90;;;;;;2098277;68;20267;-76
2022/04/10 06:55:42;;;;;;;6.03;2.28;;;3.40;99.90;;;;;;2089686;68;20269;-76
2022/04/10 06:58:26;;;;;;;;;;;4.20;99.90;;;;;;2091696;68;20191;-76
2022/04/10 07:01:10;;;;;;;9.68;2.20;;;3.30;99.90;;;;;;2100317;67;20061;-76
2022/04/10 07:03:54;;;;;;;8.05;2.95;;;3.30;99.90;;;;;;2098607;68;20665;-76
2022/04/10 07:06:46;;;;;;;5.82;2.08;;;3.40;99.90;;;;;;2110394;67;20214;-76
2022/04/10 07:09:29;;;;;;;9.10;2.47;;;3.30;99.90;;;;;;2103705;67;20201;-75
2022/04/10 07:12:13;;;;;;;8.50;2.95;;;3.50;99.90;;;;;;2112870;67;20460;-75
2022/04/10 07:14:59;;;;;;;10.85;2.40;;;3.60;99.90;;;;;;2111326;67;20815;-75
2022/04/10 07:17:42;;;;;;;7.97;2.72;;;3.80;99.90;;;;;;2111921;67;20181;-75
2022/04/10 07:20:25;;;;;;;6.47;2.20;;;3.80;99.90;;;;;;2105945;67;20204;-75
2022/04/10 07:26:06;;;;;;;8.60;2.05;;;3.80;99.90;;;;;;2117437;67;20165;-75
2022/04/10 07:28:52;;;;;;;8.50;1.73;;;3.90;99.90;;;;;;2118008;67;22414;-75
2022/04/10 07:31:36;;;;;;;8.35;1.75;;;4.10;99.90;;;;;;2121403;67;20338;-75
2022/04/10 07:34:21;;;;;;;3.00;1.30;;;4.20;99.90;;;;;;2125636;67;20212;-74
2022/04/10 07:37:06;;;;;;;6.28;1.98;;;4.20;99.90;;;;;;2134155;67;20220;-74
2022/04/10 07:39:50;;;;;;;7.97;1.88;;;4.30;99.90;;;;;;2135950;67;20172;-75
2022/04/10 07:42:37;;;;;;;6.70;1.85;;;4.40;99.90;;;;;;2134375;67;20392;-74
2022/04/10 07:48:20;;;;;;;6.30;1.70;;;4.60;99.90;;;;;;2137594;67;20307;-75
2022/04/10 07:51:10;;;;;;;4.82;0.85;;;4.60;99.90;;;;;;2131423;67;20721;-76
2022/04/10 07:53:57;;;;;;;4.15;1.45;;;4.70;99.90;;;;;;2124799;67;20679;-76
2022/04/10 07:56:40;;;;;;;3.80;1.20;;;4.80;99.90;;;;;;2128175;67;20181;-76
2022/04/10 07:59:27;;;;;;;3.75;1.30;;;4.90;99.90;;;;;;2116830;67;20265;-75
2022/04/10 08:02:08;;;;;;;4.60;1.33;;;5.00;99.90;;;;;;2111894;67;20380;-76
2022/04/10 08:04:50;;;;;;;7.82;1.92;;;5.10;99.90;;;;;;2098850;68;20351;-76
2022/04/10 08:07:37;;;;;;;4.38;1.50;;;5.20;99.90;;;;;;2099736;67;21001;-75
2022/04/10 08:10:22;;;;;;;6.70;1.63;;;5.30;99.90;;;;;;2095491;68;20210;-75
2022/04/10 08:13:05;;;;;;;8.65;1.67;;;5.40;99.90;;;;;;2110350;67;20852;-75
2022/04/10 08:15:49;;;;;;;8.13;1.77;;;5.50;99.90;;;;;;2105458;67;20185;-76
2022/04/10 08:18:36;;;;;;;10.82;2.13;;;5.60;99.90;;;;;;2092791;68;20353;-76
2022/04/10 08:21:21;;;;;;;6.78;1.60;;;5.70;99.90;;;;;;2099081;67;20178;-75
2022/04/10 08:24:08;;;;;;;10.07;2.00;;;6.00;99.90;;;;;;2102015;67;20218;-76
2022/04/10 08:26:51;;;;;;;8.05;2.00;;;6.30;99.90;;;;;;2101855;68;20282;-74
2022/04/10 08:29:34;;;;;;;9.68;2.05;;;6.60;99.90;;;;;;2089503;68;20670;-76
2022/04/10 08:32:20;;;;;;;;;;;6.60;99.90;;;;;;2098407;67;20166;-76
2022/04/10 08:35:06;;;;;;;6.50;1.83;;;6.60;99.90;;;;;;2110874;67;20217;-76
2022/04/10 08:37:51;;;;;;;5.90;1.70;;;6.70;99.90;;;;;;2106741;67;20362;-76
2022/04/10 08:40:36;;;;;;;5.78;1.83;;;6.70;99.90;;;;;;2097766;68;20397;-76
2022/04/10 08:43:21;;;;;;;3.05;1.58;;;6.80;99.90;;;;;;2096521;68;20174;-75
2022/04/10 08:46:09;;;;;;;5.32;1.70;;;6.90;99.90;;;;;;2102794;68;20355;-76
2022/04/10 08:48:51;;;;;;;4.93;1.75;;;7.00;99.90;;;;;;2095310;67;20263;-76
2022/04/10 08:51:33;;;;;;;5.68;2.00;;;7.00;99.90;;;;;;2101122;67;20295;-76
2022/04/10 08:54:18;;;;;;;4.60;1.08;;;7.00;99.90;;;;;;2094896;68;20327;-76
2022/04/10 08:57:04;;;;;;;4.22;1.55;;;7.00;99.90;;;;;;2103200;67;20374;-76
2022/04/10 08:59:47;;;;;;;9.02;1.40;;;7.10;99.90;;;;;;2104958;67;20403;-76
2022/04/10 09:02:29;;;;;;;6.40;1.83;;;7.10;99.90;;;;;;2108386;67;20233;-76
2022/04/10 09:05:40;;;;;;;4.78;1.60;;;7.30;99.90;;;;;;2116966;67;20362;-76
2022/04/10 09:08:24;;;;;;;6.13;1.45;;;7.30;99.90;;;;;;2098618;68;21767;-76
2022/04/10 09:11:10;;;;;;;7.22;1.58;;;7.20;99.90;;;;;;2096563;68;21919;-75
2022/04/10 09:13:54;;;;;;;4.47;1.80;;;7.10;99.90;;;;;;2100877;67;20257;-77
2022/04/10 09:16:41;;;;;;;3.42;1.00;;;7.00;99.90;;;;;;2104828;67;20395;-76
2022/04/10 09:19:36;;;;;;;5.18;1.30;;;7.00;99.90;;;;;;2111968;67;20309;-77
2022/04/10 09:22:27;;;;;;;4.47;1.20;;;6.90;99.90;;;;;;2123174;67;20273;-76
2022/04/10 09:25:18;;;;;;;4.30;1.00;;;7.00;99.90;;;;;;2134638;67;20316;-77
2022/04/10 09:28:01;;;;;;;2.53;1.00;;;7.00;99.90;;;;;;2125372;67;20770;-76
2022/04/10 09:30:46;;;;;;;;;;;7.00;99.90;;;;;;2112782;67;20198;-75
2022/04/10 09:33:28;;;;;;;7.35;1.50;;;7.10;99.90;;;;;;2109904;67;20066;-76
2022/04/10 09:36:10;;;;;;;4.68;1.70;;;7.20;99.90;;;;;;2114214;67;20174;-77
2022/04/10 09:38:52;;;;;;;3.75;1.40;;;7.40;99.90;;;;;;2115971;67;20252;-77
2022/04/10 09:41:34;;;;;;;6.32;1.98;;;7.50;99.90;;;;;;2117644;67;20381;-77
2022/04/10 09:44:22;;;;;;;4.47;1.10;;;7.80;99.90;;;;;;2117610;67;20245;-76
2022/04/10 09:47:09;;;;;;;5.78;1.67;;;8.10;99.90;;;;;;2121395;67;20291;-75
2022/04/10 09:50:03;;;;;;;8.18;1.77;;;8.40;99.90;;;;;;2109255;67;20823;-77
2022/04/10 09:52:46;;;;;;;7.57;1.83;;;8.60;99.90;;;;;;2110814;67;20491;-77
2022/04/10 09:55:38;;;;;;;;;;;8.70;99.90;;;;;;2103486;68;20195;-76
2022/04/10 09:58:23;;;;;;;3.22;1.40;;;8.70;99.90;;;;;;2119285;67;20250;-77
2022/04/10 10:01:07;;;;;;;4.00;1.13;;;8.50;99.90;;;;;;2101968;67;20416;-77
2022/04/10 10:03:51;;;;;;;6.30;1.45;;;8.30;99.90;;;;;;2104468;67;20203;-77
2022/04/10 10:06:36;;;;;;;6.15;1.80;;;8.10;99.90;;;;;;2108910;67;20281;-80
2022/04/10 10:09:22;;;;;;;6.05;1.75;;;8.20;99.90;;;;;;2116623;67;20330;-76
2022/04/10 10:12:05;;;;;;;5.35;2.05;;;8.30;99.90;;;;;;2124451;67;20778;-77
2022/04/10 10:14:48;;;;;;;5.80;1.48;;;8.40;99.90;;;;;;2132093;67;20235;-76
2022/04/10 10:17:33;;;;;;;;;;;8.60;99.90;;;;;;2124724;67;20189;-74
2022/04/10 10:20:14;;;;;;;8.43;1.90;;;8.90;99.90;;;;;;2125796;67;20208;-75
2022/04/10 10:23:02;;;;;;;6.20;1.83;;;9.00;99.90;;;;;;2134870;66;20259;-76
2022/04/10 10:26:22;;;;;;;2.35;1.30;;;9.20;99.90;;;;;;2135321;67;20351;-75
2022/04/10 10:29:22;;;;;;;6.63;1.63;;;9.30;98.40;;;;;;2126964;67;20287;-77
2022/04/10 10:32:13;;;;;;;6.68;1.80;;;9.50;97.20;;;;;;2146342;66;20698;-79
2022/04/10 10:34:56;;;;;;;4.65;1.25;;;9.50;97.80;;;;;;2134466;66;20240;-79
2022/04/10 10:37:51;;;;;;;4.13;1.00;;;10.30;96.90;;;;;;2136793;66;20399;-78
2022/04/10 10:40:34;;;;;;;3.15;1.10;;;9.70;92.50;;;;;;2138045;66;20234;-78
2022/04/10 10:43:25;;;;;;;4.65;1.38;;;9.70;94.60;;;;;;2122837;67;20622;-77
2022/04/10 10:46:20;;;;;;;7.72;1.60;;;9.70;93.50;;;;;;2120257;67;20707;-78
2022/04/10 10:49:19;;;;;;;9.43;1.45;;;9.80;93.60;;;;;;2117703;67;20772;-79
2022/04/10 10:52:10;;;;;;;5.20;0.98;;;10.20;94.80;;;;;;2117203;67;20236;-77
2022/04/10 10:54:58;;;;;;;4.50;1.20;;;10.60;91.60;;;;;;2103534;67;20691;-77
2022/04/10 10:57:44;;;;;;;4.68;1.23;;;10.80;92.00;;;;;;2105889;67;20847;-78
2022/04/10 11:00:35;;;;;;;5.57;1.52;;;10.50;90.70;;;;;;2107739;67;20228;-79
2022/04/10 11:03:17;;;;;;;4.30;1.65;;;10.60;90.70;;;;;;2098035;68;20667;-78
2022/04/10 11:06:16;;;;;;;2.97;1.25;;;11.00;90.90;;;;;;2099937;68;20211;-77
2022/04/10 11:09:41;;;;;;;3.05;1.20;;;11.50;82.80;;;;;;2100664;67;20287;-78
2022/04/10 11:12:29;;;;;;;7.47;1.30;;;12.10;81.90;;;;;;2099576;68;20382;-78
2022/04/10 11:15:24;;;;;;;4.88;1.20;;;12.60;79.50;;;;;;2114785;67;20309;-77
2022/04/10 11:18:23;;;;;;;5.45;2.03;;;12.50;73.40;;;;;;2125732;67;20352;-77
2022/04/10 11:21:18;;;;;;;3.90;0.90;;;12.80;74.50;;;;;;2107665;67;20233;-76
2022/04/10 11:24:01;;;;;;;3.22;1.23;;;13.20;70.00;;;;;;2101732;67;20316;-76
2022/04/10 11:26:44;;;;;;;2.33;0.70;;;12.90;70.20;;;;;;2107043;67;20237;-79
2022/04/10 11:29:27;;;;;;;3.63;0.90;;;13.20;69.00;;;;;;2116265;67;20208;-76
2022/04/10 11:32:17;;;;;;;4.25;1.10;;;14.00;68.20;;;;;;2124160;67;20364;-78
2022/04/10 11:35:00;;;;;;;8.23;1.50;;;14.90;65.80;;;;;;2119021;67;20500;-79
2022/04/10 11:37:47;;;;;;;5.60;1.33;;;15.90;66.80;;;;;;2112474;67;20272;-78
2022/04/10 11:40:34;;;;;;;4.60;1.20;;;16.30;62.10;;;;;;2116745;67;20563;-78
2022/04/10 11:43:21;;;;;;;3.33;1.90;;;16.40;59.30;;;;;;2110501;67;20404;-77
2022/04/10 11:46:03;;;;;;;5.28;1.40;;;15.80;59.20;;;;;;2112635;67;20299;-77
2022/04/10 11:48:50;;;;;;;3.40;1.10;;;15.30;59.50;;;;;;2115468;67;20431;-77
2022/04/10 11:51:48;;;;;;;3.53;1.40;;;15.80;59.70;;;;;;2107041;67;20229;-78
2022/04/10 11:54:52;;;;;;;1.77;0.88;;;16.20;59.80;;;;;;2113854;67;20882;-77
2022/04/10 11:57:38;;;;;;;5.65;1.13;;;16.00;55.90;;;;;;2121720;67;20677;-77
2022/04/10 12:00:22;;;;;;;4.47;1.20;;;16.40;56.80;;;;;;2107929;67;20277;-76
2022/04/10 12:03:10;;;;;;;4.32;1.05;;;16.90;57.60;;;;;;2115412;67;20188;-76
2022/04/10 12:05:53;;;;;;;2.50;1.00;;;16.80;55.00;;;;;;2112300;67;20221;-78
2022/04/10 12:08:37;;;;;;;5.05;1.20;;;16.40;56.20;;;;;;2102458;67;20256;-75
2022/04/10 12:11:20;;;;;;;2.95;1.27;;;16.90;56.80;;;;;;2104754;67;20185;-75
2022/04/10 12:14:17;;;;;;;4.95;1.10;;;17.40;54.40;;;;;;2107497;67;20199;-77
2022/04/10 12:16:59;;;;;;;3.88;1.17;;;16.80;51.60;;;;;;2121548;67;20446;-76
2022/04/10 12:19:41;;;;;;;4.85;1.10;;;16.90;54.00;;;;;;2127446;67;20180;-77
2022/04/10 12:22:23;;;;;;;5.82;1.48;;;17.60;53.70;;;;;;2123280;67;20168;-77
2022/04/10 12:25:06;;;;;;;3.97;1.10;;;18.40;52.90;;;;;;2130620;67;20390;-77
2022/04/10 12:27:51;;;;;;;4.28;2.35;;;19.30;52.50;;;;;;2126628;67;20200;-78
2022/04/10 12:30:38;;;;;;;4.80;1.70;;;19.00;52.70;;;;;;2125229;67;20862;-76
2022/04/10 12:33:19;;;;;;;3.15;1.15;;;19.20;51.70;;;;;;2125182;67;20264;-78
2022/04/10 12:36:18;;;;;;;7.47;2.15;;;19.10;51.60;;;;;;2113420;67;20255;-76
2022/04/10 12:39:03;;;;;;;3.45;1.30;;;18.50;50.20;;;;;;2106202;67;20230;-77
2022/04/10 12:42:09;;;;;;;5.72;1.13;;;18.10;52.40;;;;;;2118982;67;20197;-76
2022/04/10 12:45:13;;;;;;;2.30;1.48;;;18.00;52.50;;;;;;2124898;67;20242;-76
2022/04/10 12:47:59;;;;;;;3.45;1.02;;;19.10;51.60;;;;;;2131675;67;20179;-77
2022/04/10 12:50:41;;;;;;;4.03;1.10;;;19.60;49.40;;;;;;2127172;67;20764;-77
2022/04/10 12:53:23;;;;;;;2.50;1.10;;;19.60;49.30;;;;;;2135283;67;20716;-77
2022/04/10 12:56:18;;;;;;;4.93;1.33;;;19.80;49.80;;;;;;2124590;67;20180;-77
2022/04/10 12:59:00;;;;;;;6.00;1.33;;;20.40;48.30;;;;;;2117286;67;20243;-77
2022/04/10 13:01:52;;;;;;;4.35;1.48;;;20.70;47.20;;;;;;2113272;67;20272;-76
2022/04/10 13:05:02;;;;;;;4.25;1.40;;;21.30;46.10;;;;;;2111046;67;20169;-77
2022/04/10 13:07:35;;;;;;;2.08;0.85;;;21.60;41.70;;;;;;2126130;67;20180;-77
2022/04/10 13:10:27;;;;;;;3.45;0.85;;;20.50;45.40;;;;;;2131685;67;20207;-76
2022/04/10 13:13:05;;;;;;;2.70;1.00;;;20.60;45.10;;;;;;2134732;66;20306;-77
2022/04/10 13:15:43;;;;;;;4.33;1.00;;;19.70;44.00;;;;;;2140849;66;20186;-77
2022/04/10 13:18:26;;;;;;;2.42;0.80;;;20.00;46.00;;;;;;2135832;67;21005;-77
2022/04/10 13:21:05;;;;;;;4.35;1.20;;;20.90;44.70;;;;;;2140020;66;20166;-77
2022/04/10 13:23:45;;;;;;;3.25;1.40;;;21.40;44.40;;;;;;2145710;66;20228;-78
2022/04/10 13:26:37;;;;;;;3.80;1.38;;;22.10;43.90;;;;;;2141409;66;20261;-77
2022/04/10 13:29:17;;;;;;;5.72;1.42;;;22.80;42.80;;;;;;2156738;66;20354;-76
2022/04/10 13:31:58;;;;;;;3.65;1.10;;;23.00;42.90;;;;;;2163682;65;20182;-76
2022/04/10 13:34:38;;;;;;;3.83;1.20;;;23.20;43.00;;;;;;2181905;65;20204;-79
2022/04/10 13:37:18;;;;;;;5.18;1.50;;;23.60;43.00;;;;;;2182575;65;20174;-77
2022/04/10 13:39:52;;;;;;;4.20;1.50;;;24.00;41.50;;;;;;2182080;65;20269;-77
2022/04/10 13:42:29;;;;;;;4.43;1.10;;;24.30;40.80;;;;;;2182800;65;20307;-77
2022/04/10 13:45:20;;;;;;;6.03;1.20;;;24.10;40.20;;;;;;2208680;64;20231;-79
2022/04/10 13:47:58;;;;;;;3.75;0.85;;;24.50;40.60;;;;;;2214387;64;20196;-81
2022/04/10 13:50:35;;;;;;;1.67;1.10;;;24.70;40.70;;;;;;2212774;64;20201;-81
2022/04/10 13:53:12;;;;;;;3.15;1.10;;;24.90;39.70;;;;;;2213640;64;20271;-82
2022/04/10 13:55:48;;;;;;;2.25;0.98;;;25.10;39.60;;;;;;2223064;64;20172;-81
2022/04/10 13:58:24;;;;;;;3.55;1.50;;;24.50;39.10;;;;;;2221972;64;20313;-81
2022/04/10 14:01:04;;;;;;;2.10;0.80;;;24.00;40.00;;;;;;2223190;64;20172;-82
2022/04/10 14:03:41;;;;;;;3.17;1.08;;;24.70;39.60;;;;;;2229989;64;20228;-81
2022/04/10 14:06:28;;;;;;;3.33;1.30;;;24.90;39.50;;;;;;2216634;64;20171;-81
2022/04/10 14:09:10;;;;;;;6.55;1.38;;;23.70;39.30;;;;;;2206222;64;20741;-78
2022/04/10 14:11:54;;;;;;;2.45;1.05;;;22.10;40.60;;;;;;2200796;65;20303;-79
2022/04/10 14:14:42;;;;;;;4.38;1.30;;;21.70;41.60;;;;;;2191679;65;20257;-78
2022/04/10 14:17:28;;;;;;;3.25;1.20;;;22.50;41.30;;;;;;2176053;65;20243;-78
2022/04/10 14:20:13;;;;;;;4.82;1.20;;;22.40;39.70;;;;;;2153412;66;20253;-79
2022/04/10 14:22:56;;;;;;;5.38;1.05;;;21.60;42.40;;;;;;2138633;66;20167;-79
2022/04/10 14:25:41;;;;;;;4.43;1.20;;;22.70;41.90;;;;;;2138827;66;20238;-79
2022/04/10 14:28:24;;;;;;;3.08;1.40;;;23.50;40.30;;;;;;2132343;67;20258;-79
2022/04/10 14:31:10;;;;;;;3.22;1.48;;;23.80;40.00;;;;;;2127388;67;20179;-79
2022/04/10 14:33:53;;;;;;;1.58;0.82;;;24.30;39.80;;;;;;2131781;67;20340;-79
2022/04/10 14:36:40;;;;;;;4.80;1.38;;;24.50;38.30;;;;;;2132808;67;20176;-80
2022/04/10 14:39:23;;;;;;;1.73;0.80;;;22.90;38.90;;;;;;2137912;66;20634;-79